This is the latest recevied weather packets stored in our database for station/object E24CR-1. If no packets are shown the sender has not sent any weather packets the latest 10 day(s).
| Time | Temp. | Humidity | Pressure | Rain* | Wind** | Luminosity | Snow |
|---|---|---|---|---|---|---|---|
| 1777544016 | 30° C | 53% | 950 hPa | - | - | 0 W/m² | - |
| 1777543391 | 29.44° C | 59% | 950 hPa | - | - | 0 W/m² | - |
| 1777542765 | 27.78° C | 65% | 950 hPa | - | - | 0 W/m² | - |
| 1777542140 | 25.56° C | 72% | 950 hPa | - | - | 0 W/m² | - |
| 1777541514 | 26.67° C | 67% | 949 hPa | - | - | 0 W/m² | - |
| 1777540889 | 26.11° C | 65% | 949 hPa | - | - | 0 W/m² | - |
| 1777540264 | 25° C | 71% | 950 hPa | - | - | 0 W/m² | - |
| 1777539638 | 26.67° C | 59% | 950 hPa | - | - | 0 W/m² | - |
| 1777539013 | 29.44° C | 52% | 949 hPa | - | - | 0 W/m² | - |
| 1777538388 | 34.44° C | 38% | 949 hPa | - | - | 0 W/m² | - |
| 1777537763 | 34.44° C | 40% | 949 hPa | - | - | 0 W/m² | - |
| 1777537138 | 33.89° C | 39% | 949 hPa | - | - | 0 W/m² | - |
| 1777536512 | 35.56° C | 36% | 949 hPa | - | - | 0 W/m² | - |
| 1777535886 | 34.44° C | 37% | 950 hPa | - | - | 0 W/m² | - |
| 1777535260 | 34.44° C | 37% | 950 hPa | - | - | 0 W/m² | - |
| 1777534635 | 35.56° C | 37% | 950 hPa | - | - | 0 W/m² | - |
| 1777534010 | 35° C | 39% | 950 hPa | - | - | 0 W/m² | - |
| 1777533385 | 36.11° C | 38% | 950 hPa | - | - | 0 W/m² | - |
| 1777532759 | 36.67° C | 38% | 950 hPa | - | - | 0 W/m² | - |
| 1777532134 | 35.56° C | 40% | 951 hPa | - | - | 0 W/m² | - |
| 1777531509 | 35° C | 40% | 951 hPa | - | - | 0 W/m² | - |
| 1777530883 | 35.56° C | 41% | 951 hPa | - | - | 0 W/m² | - |
| 1777530258 | 36.67° C | 39% | 952 hPa | - | - | 0 W/m² | - |
| 1777529632 | 35.56° C | 41% | 952 hPa | - | - | 0 W/m² | - |
| 1777529007 | 35.56° C | 41% | 952 hPa | - | - | 0 W/m² | - |
* Rain since midnight (hover to see other rain measurements)
** Current wind speed in m/s (hover to see current wind gust speed)